createdAt,value
2022-10-19T00:01:09.190Z,13.16
2022-10-19T00:03:36.498Z,13.14
2022-10-19T00:06:15.706Z,13.12
2022-10-19T00:08:43.681Z,13.08
2022-10-19T00:11:12.050Z,13.04
2022-10-19T00:13:39.207Z,13.01
2022-10-19T00:16:12.240Z,13.00
2022-10-19T00:18:40.270Z,13.02
2022-10-19T00:21:09.491Z,13.00
2022-10-19T00:23:36.816Z,13.01
2022-10-19T00:26:04.443Z,13.00
2022-10-19T00:28:31.304Z,13.00
2022-10-19T00:31:02.880Z,13.00
2022-10-19T00:33:29.633Z,12.99
2022-10-19T00:35:56.570Z,12.96
2022-10-19T00:38:23.344Z,12.94
2022-10-19T00:40:50.306Z,12.93
2022-10-19T00:43:20.309Z,12.89
2022-10-19T00:45:48.306Z,12.87
2022-10-19T00:48:25.996Z,12.83
2022-10-19T00:50:55.827Z,12.81
2022-10-19T00:53:25.890Z,12.74
2022-10-19T00:55:53.403Z,12.70
2022-10-19T00:58:20.291Z,12.67
2022-10-19T01:00:47.435Z,12.65
2022-10-19T01:03:14.537Z,12.63
2022-10-19T01:05:41.584Z,12.59
2022-10-19T01:08:10.057Z,12.54
2022-10-19T01:10:51.590Z,12.52
2022-10-19T01:13:42.710Z,12.51
2022-10-19T01:16:22.514Z,12.47
2022-10-19T01:19:01.663Z,12.42
2022-10-19T01:21:39.279Z,12.36
2022-10-19T01:24:32.667Z,12.37
2022-10-19T01:27:09.971Z,12.35
2022-10-19T01:29:54.893Z,12.30
2022-10-19T01:32:46.741Z,12.28
2022-10-19T01:35:26.180Z,12.26
2022-10-19T01:38:07.646Z,12.26
2022-10-19T01:40:56.091Z,12.22
2022-10-19T01:43:41.833Z,12.20
2022-10-19T01:46:13.350Z,12.18
2022-10-19T01:48:51.460Z,12.17
2022-10-19T01:51:25.042Z,12.15
2022-10-19T01:53:57.354Z,12.10
2022-10-19T01:56:26.999Z,12.06
2022-10-19T01:58:58.038Z,12.04
2022-10-19T02:01:28.021Z,12.01
2022-10-19T02:03:56.571Z,12.01
2022-10-19T02:06:23.883Z,11.99
2022-10-19T02:08:53.362Z,11.97
2022-10-19T02:11:21.841Z,11.94
2022-10-19T02:13:54.522Z,11.96
2022-10-19T02:16:27.843Z,11.95
2022-10-19T02:18:56.442Z,11.95
2022-10-19T02:21:23.780Z,11.97
2022-10-19T02:23:53.402Z,11.95
2022-10-19T02:26:22.025Z,11.96
2022-10-19T02:28:49.845Z,11.98
2022-10-19T02:31:17.125Z,11.98
2022-10-19T02:33:44.362Z,12.00
2022-10-19T02:36:11.248Z,12.01
2022-10-19T02:38:38.418Z,11.99
2022-10-19T02:41:23.818Z,11.98
2022-10-19T02:43:58.075Z,12.00
2022-10-19T02:46:36.927Z,11.98
2022-10-19T02:49:06.783Z,12.00
2022-10-19T02:51:36.599Z,12.01
2022-10-19T02:54:06.092Z,11.99
2022-10-19T02:56:34.654Z,11.94
2022-10-19T02:59:02.416Z,11.85
2022-10-19T03:01:29.209Z,11.75
2022-10-19T03:03:56.485Z,11.65
2022-10-19T03:06:23.275Z,11.58
2022-10-19T03:08:51.042Z,11.53
2022-10-19T03:11:17.853Z,11.50
2022-10-19T03:13:45.221Z,11.49
2022-10-19T03:16:13.716Z,11.47
2022-10-19T03:18:40.776Z,11.42
2022-10-19T03:21:10.789Z,11.43
2022-10-19T03:23:38.996Z,11.40
2022-10-19T03:26:08.752Z,11.38
2022-10-19T03:28:38.469Z,11.35
2022-10-19T03:31:05.490Z,11.30
2022-10-19T03:33:32.542Z,11.27
2022-10-19T03:36:25.230Z,11.24
2022-10-19T03:38:54.628Z,11.19
2022-10-19T03:41:22.973Z,11.14
2022-10-19T03:43:50.332Z,11.10
2022-10-19T03:46:18.134Z,11.08
2022-10-19T03:48:45.550Z,11.07
2022-10-19T03:51:18.159Z,11.07
2022-10-19T03:53:46.596Z,11.08
2022-10-19T03:56:17.548Z,11.08
2022-10-19T03:58:46.624Z,11.12
2022-10-19T04:01:19.226Z,11.15
2022-10-19T04:03:46.666Z,11.19
2022-10-19T04:06:19.610Z,11.20
2022-10-19T04:08:50.179Z,11.23
2022-10-19T04:11:19.276Z,11.26
2022-10-19T04:13:48.062Z,11.26
2022-10-19T04:16:14.958Z,11.28
2022-10-19T04:18:42.030Z,11.31
2022-10-19T04:21:40.614Z,11.35
2022-10-19T04:24:10.697Z,11.38
2022-10-19T04:26:43.441Z,11.38
2022-10-19T04:29:10.925Z,11.40
2022-10-19T04:31:38.789Z,11.40
2022-10-19T04:34:07.179Z,11.45
2022-10-19T04:36:34.405Z,11.47
2022-10-19T04:39:01.429Z,11.44
2022-10-19T04:41:28.213Z,11.44
2022-10-19T04:43:58.206Z,11.45
2022-10-19T04:46:26.477Z,11.44
2022-10-19T04:48:54.883Z,11.44
2022-10-19T04:51:23.203Z,11.46
2022-10-19T04:53:51.423Z,11.40
2022-10-19T04:56:21.823Z,11.41
2022-10-19T04:58:49.213Z,11.41
2022-10-19T05:01:18.770Z,11.38
2022-10-19T05:03:46.451Z,11.39
2022-10-19T05:06:14.970Z,11.37
2022-10-19T05:08:42.313Z,11.38
2022-10-19T05:11:14.857Z,11.37
2022-10-19T05:13:43.503Z,11.40
2022-10-19T05:16:12.879Z,11.38
2022-10-19T05:18:40.712Z,11.40
2022-10-19T05:21:12.830Z,11.45
2022-10-19T05:23:41.334Z,11.47
2022-10-19T05:26:14.048Z,11.49
2022-10-19T05:28:41.301Z,11.50
2022-10-19T05:31:20.903Z,11.51
2022-10-19T05:33:48.172Z,11.51
2022-10-19T05:36:16.830Z,11.55
2022-10-19T05:38:48.647Z,11.56
2022-10-19T05:41:15.961Z,11.55
2022-10-19T05:43:43.507Z,11.52
2022-10-19T05:46:12.767Z,11.47
2022-10-19T05:48:40.872Z,11.50
2022-10-19T05:51:10.846Z,11.44
2022-10-19T05:56:07.598Z,11.36
2022-10-19T05:58:35.705Z,11.35
2022-10-19T06:01:03.570Z,11.34
2022-10-19T06:03:31.112Z,11.35
2022-10-19T06:05:58.489Z,11.37
2022-10-19T06:08:26.163Z,11.37
2022-10-19T06:10:52.981Z,11.39
2022-10-19T06:13:20.469Z,11.36
2022-10-19T06:15:51.033Z,11.39
2022-10-19T06:18:18.012Z,11.44
2022-10-19T06:20:44.836Z,11.47
2022-10-19T06:23:11.794Z,11.46
2022-10-19T06:25:38.687Z,11.58
2022-10-19T06:28:05.829Z,11.79
2022-10-19T06:30:32.706Z,12.20
2022-10-19T06:32:59.998Z,13.01
2022-10-19T06:35:26.888Z,13.44
2022-10-19T06:37:56.605Z,13.60
2022-10-19T06:40:24.841Z,13.72
2022-10-19T06:42:52.055Z,13.69
2022-10-19T06:45:18.910Z,13.96
2022-10-19T06:47:48.985Z,14.15
2022-10-19T06:50:15.913Z,14.22
2022-10-19T06:52:42.991Z,14.14
2022-10-19T06:55:09.997Z,14.13
2022-10-19T06:57:37.198Z,14.05
2022-10-19T07:00:09.211Z,13.91
2022-10-19T07:02:36.254Z,13.62
2022-10-19T07:05:06.970Z,13.49
2022-10-19T07:07:34.958Z,14.20
2022-10-19T07:10:02.315Z,15.38
2022-10-19T07:12:29.395Z,16.58
2022-10-19T07:14:56.248Z,17.71
2022-10-19T07:17:23.234Z,18.74
2022-10-19T07:19:49.999Z,19.65
2022-10-19T07:22:21.191Z,20.33
2022-10-19T07:24:52.295Z,21.06
2022-10-19T07:27:19.250Z,21.96
2022-10-19T07:29:46.029Z,22.78
2022-10-19T07:32:12.979Z,23.33
2022-10-19T07:34:39.752Z,23.70
2022-10-19T07:37:06.840Z,22.96
2022-10-19T07:39:33.586Z,22.80
2022-10-19T07:42:00.542Z,22.94
2022-10-19T07:44:27.934Z,23.00
2022-10-19T07:46:54.978Z,22.58
2022-10-19T07:49:22.519Z,22.14
2022-10-19T07:51:53.935Z,21.93
2022-10-19T07:54:21.491Z,21.88
2022-10-19T07:56:48.443Z,22.51
2022-10-19T07:59:17.294Z,22.69
2022-10-19T08:01:45.250Z,23.33
2022-10-19T08:06:59.311Z,24.28
2022-10-19T08:09:52.935Z,24.18
2022-10-19T08:12:15.491Z,24.28
2022-10-19T08:14:42.635Z,24.11
2022-10-19T08:17:12.089Z,24.29
2022-10-19T08:19:43.442Z,24.30
2022-10-19T08:22:11.007Z,24.47
2022-10-19T08:24:38.090Z,24.23
2022-10-19T08:27:05.222Z,23.45
2022-10-19T08:29:32.189Z,22.58
2022-10-19T08:31:59.668Z,21.42
2022-10-19T08:34:26.478Z,20.41
2022-10-19T08:36:53.923Z,19.97
2022-10-19T08:39:20.703Z,19.85
2022-10-19T08:42:12.734Z,19.48
2022-10-19T08:45:02.576Z,18.67
2022-10-19T08:47:50.609Z,17.72
2022-10-19T08:50:21.927Z,17.28
2022-10-19T08:53:04.122Z,16.80
2022-10-19T08:55:49.807Z,16.60
2022-10-19T08:58:30.389Z,16.24
2022-10-19T09:01:10.096Z,16.20
2022-10-19T09:03:56.609Z,16.27
2022-10-19T09:06:31.166Z,16.33
2022-10-19T09:08:59.336Z,16.38
2022-10-19T09:11:32.759Z,16.33
2022-10-19T09:14:18.540Z,16.12
2022-10-19T09:16:46.412Z,16.11
2022-10-19T09:19:22.952Z,16.17
2022-10-19T09:21:55.629Z,16.19
2022-10-19T09:24:25.481Z,16.11
2022-10-19T09:26:55.511Z,16.12
2022-10-19T09:29:28.578Z,16.06
2022-10-19T09:34:37.403Z,16.12
2022-10-19T09:37:04.278Z,16.06
2022-10-19T09:39:31.779Z,15.95
2022-10-19T09:42:07.429Z,15.94
2022-10-19T09:44:34.838Z,15.79
2022-10-19T09:47:39.889Z,15.41
2022-10-19T09:50:36.411Z,15.08
2022-10-19T09:53:05.086Z,15.16
2022-10-19T09:56:13.716Z,14.66
2022-10-19T09:58:48.055Z,14.25
2022-10-19T10:01:43.222Z,14.11
2022-10-19T10:04:19.350Z,13.98
2022-10-19T10:06:48.613Z,13.93
2022-10-19T10:09:18.090Z,13.78
2022-10-19T10:11:49.620Z,13.66
2022-10-19T10:14:28.776Z,13.48
2022-10-19T10:17:06.928Z,13.34
2022-10-19T10:19:35.658Z,13.36
2022-10-19T10:22:04.478Z,13.38
2022-10-19T10:24:34.168Z,13.28
2022-10-19T10:27:04.312Z,13.28
2022-10-19T10:29:33.871Z,13.35
2022-10-19T10:32:06.615Z,13.41
2022-10-19T10:34:50.132Z,13.45
2022-10-19T10:37:40.016Z,13.39
2022-10-19T10:40:28.473Z,13.30
2022-10-19T10:43:08.838Z,13.29
2022-10-19T10:45:44.105Z,13.45
2022-10-19T10:48:39.060Z,13.46
2022-10-19T10:51:19.800Z,13.72
2022-10-19T10:53:47.033Z,14.81
2022-10-19T10:56:26.105Z,16.22
2022-10-19T10:59:04.006Z,17.35
2022-10-19T11:01:39.705Z,17.60
2022-10-19T11:04:22.819Z,17.37
2022-10-19T11:07:01.358Z,16.87
2022-10-19T11:09:43.134Z,16.43
2022-10-19T11:12:13.989Z,15.88
2022-10-19T11:14:49.920Z,15.49
2022-10-19T11:17:22.486Z,14.98
2022-10-19T11:19:52.330Z,14.77
2022-10-19T11:22:34.851Z,14.59
2022-10-19T11:25:32.870Z,14.12
2022-10-19T11:28:08.985Z,13.80
2022-10-19T11:31:15.039Z,13.49
2022-10-19T11:33:53.825Z,13.42
2022-10-19T11:36:45.961Z,13.43
2022-10-19T11:39:34.300Z,13.36
2022-10-19T11:42:07.471Z,13.25
2022-10-19T11:45:06.620Z,13.12
2022-10-19T11:47:53.815Z,12.97
2022-10-19T11:50:32.011Z,12.87
2022-10-19T11:53:04.968Z,12.66
2022-10-19T11:55:31.754Z,12.58
2022-10-19T11:58:46.355Z,12.46
2022-10-19T12:01:28.206Z,12.38
2022-10-19T12:04:39.914Z,12.40
2022-10-19T12:07:22.960Z,12.39
2022-10-19T12:10:17.041Z,12.41
2022-10-19T12:12:49.233Z,12.48
2022-10-19T12:15:26.283Z,12.56
2022-10-19T12:17:57.207Z,12.62
2022-10-19T12:20:42.935Z,12.72
2022-10-19T12:23:31.119Z,12.83
2022-10-19T12:26:00.886Z,12.90
2022-10-19T12:28:38.816Z,12.91
2022-10-19T12:31:07.213Z,13.02
2022-10-19T12:33:54.334Z,13.06
2022-10-19T12:36:33.470Z,13.16
2022-10-19T12:39:15.869Z,13.17
2022-10-19T12:42:20.158Z,13.15
2022-10-19T12:45:07.115Z,13.12
2022-10-19T12:47:34.696Z,13.04
2022-10-19T12:50:01.673Z,13.02
2022-10-19T12:52:36.689Z,12.96
2022-10-19T12:55:15.698Z,12.97
2022-10-19T12:57:57.895Z,12.91
2022-10-19T13:00:36.447Z,12.88
2022-10-19T13:03:25.149Z,12.79
2022-10-19T13:05:59.322Z,12.72
2022-10-19T13:08:38.875Z,12.65
2022-10-19T13:11:06.956Z,12.51
2022-10-19T13:14:00.627Z,12.41
2022-10-19T13:16:30.384Z,12.37
2022-10-19T13:19:00.402Z,12.24
2022-10-19T13:21:46.030Z,12.19
2022-10-19T13:24:25.231Z,12.12
2022-10-19T13:27:03.899Z,12.07
2022-10-19T13:29:39.828Z,12.05
2022-10-19T13:32:43.405Z,12.02
2022-10-19T13:35:28.926Z,11.98
2022-10-19T13:38:21.156Z,11.95
2022-10-19T13:40:51.113Z,11.91
2022-10-19T13:43:25.289Z,11.94
2022-10-19T13:46:06.477Z,11.91
2022-10-19T13:49:00.968Z,11.87
2022-10-19T13:51:45.210Z,11.84
2022-10-19T13:54:17.638Z,11.84
2022-10-19T13:57:02.975Z,11.86
2022-10-19T13:59:44.334Z,11.80
2022-10-19T14:02:37.796Z,11.77
2022-10-19T14:05:35.195Z,11.70
2022-10-19T14:08:33.434Z,11.67
2022-10-19T14:11:02.289Z,11.75
2022-10-19T14:13:29.470Z,11.74
2022-10-19T14:15:58.737Z,11.66
2022-10-19T14:18:36.707Z,11.68
2022-10-19T14:21:07.164Z,11.71
2022-10-19T14:23:37.195Z,11.68
2022-10-19T14:26:05.814Z,11.64
2022-10-19T14:28:33.718Z,11.64
2022-10-19T14:31:07.098Z,11.67
2022-10-19T14:33:38.232Z,11.58
2022-10-19T14:36:07.750Z,11.58
2022-10-19T14:38:43.430Z,11.50
2022-10-19T14:41:21.914Z,11.47
2022-10-19T14:43:48.957Z,11.45
2022-10-19T14:46:16.597Z,11.41
2022-10-19T14:48:49.683Z,11.41
2022-10-19T14:51:37.421Z,11.35
2022-10-19T14:54:11.604Z,11.31
2022-10-19T14:56:52.258Z,11.28
2022-10-19T14:59:22.239Z,11.18
2022-10-19T15:01:55.531Z,11.17
2022-10-19T15:04:26.634Z,11.16
2022-10-19T15:06:55.343Z,11.15
2022-10-19T15:09:37.751Z,11.11
2022-10-19T15:12:17.832Z,11.10
2022-10-19T15:14:46.185Z,11.08
2022-10-19T15:17:31.249Z,11.05
2022-10-19T15:20:01.362Z,10.98
2022-10-19T15:22:39.876Z,10.98
2022-10-19T15:25:06.839Z,10.86
2022-10-19T15:27:45.522Z,10.84
2022-10-19T15:30:18.387Z,10.80
2022-10-19T15:32:48.433Z,10.74
2022-10-19T15:35:34.104Z,10.69
2022-10-19T15:38:16.707Z,10.65
2022-10-19T15:40:46.277Z,10.59
2022-10-19T15:43:32.534Z,10.54
2022-10-19T15:46:12.784Z,10.53
2022-10-19T15:48:44.368Z,10.52
2022-10-19T15:51:23.347Z,10.46
2022-10-19T15:54:02.473Z,10.44
2022-10-19T15:56:32.659Z,10.45
2022-10-19T15:59:01.915Z,10.38
2022-10-19T16:01:32.195Z,10.34
2022-10-19T16:03:59.838Z,10.33
2022-10-19T16:06:30.511Z,10.25
2022-10-19T16:08:59.006Z,9.98
2022-10-19T16:11:27.132Z,9.66
2022-10-19T16:13:53.975Z,9.45
2022-10-19T16:16:26.509Z,9.31
2022-10-19T16:18:54.896Z,9.21
2022-10-19T16:21:25.616Z,9.15
2022-10-19T16:23:52.969Z,9.10
2022-10-19T16:26:21.179Z,9.08
2022-10-19T16:28:48.852Z,9.08
2022-10-19T16:31:17.141Z,9.08
2022-10-19T16:33:44.160Z,9.08
2022-10-19T16:36:11.375Z,9.10
2022-10-19T16:38:38.226Z,9.09
2022-10-19T16:41:08.075Z,9.03
2022-10-19T16:43:35.797Z,9.03
2022-10-19T16:46:03.458Z,9.03
2022-10-19T16:48:31.079Z,9.02
2022-10-19T16:51:07.022Z,9.00
2022-10-19T16:53:34.997Z,9.00
2022-10-19T16:56:13.215Z,8.91
2022-10-19T16:58:40.701Z,8.93
2022-10-19T17:01:12.615Z,8.92
2022-10-19T17:03:39.493Z,8.85
2022-10-19T17:06:08.173Z,8.86
2022-10-19T17:08:53.028Z,8.80
2022-10-19T17:11:31.879Z,8.76
2022-10-19T17:14:02.011Z,8.73
2022-10-19T17:16:31.470Z,8.68
2022-10-19T17:19:00.220Z,8.64
2022-10-19T17:21:30.016Z,8.64
2022-10-19T17:23:59.693Z,8.64
2022-10-19T17:26:42.053Z,8.58
2022-10-19T17:29:09.605Z,8.61
2022-10-19T17:31:38.489Z,8.57
2022-10-19T17:34:06.019Z,8.60
2022-10-19T17:36:36.677Z,8.59
2022-10-19T17:39:11.057Z,8.60
2022-10-19T17:41:38.147Z,8.55
2022-10-19T17:44:05.499Z,8.52
2022-10-19T17:46:34.534Z,8.57
2022-10-19T17:49:01.402Z,8.61
2022-10-19T17:51:30.782Z,8.57
2022-10-19T17:54:09.150Z,8.59
2022-10-19T17:56:37.437Z,8.60
2022-10-19T17:59:04.638Z,8.61
2022-10-19T18:01:31.683Z,8.59
2022-10-19T18:03:58.834Z,8.55
2022-10-19T18:06:32.016Z,8.57
2022-10-19T18:09:00.682Z,8.58
2022-10-19T18:11:36.056Z,8.58
2022-10-19T18:14:04.142Z,8.59
2022-10-19T18:16:34.868Z,8.61
2022-10-19T18:19:02.912Z,8.63
2022-10-19T18:21:32.788Z,8.64
2022-10-19T18:24:01.824Z,8.65
2022-10-19T18:26:30.046Z,8.59
2022-10-19T18:28:58.081Z,8.62
2022-10-19T18:31:31.740Z,8.58
2022-10-19T18:34:01.699Z,8.61
2022-10-19T18:36:29.294Z,8.61
2022-10-19T18:38:59.334Z,8.60
2022-10-19T18:41:27.276Z,8.62
2022-10-19T18:43:56.453Z,8.64
2022-10-19T18:46:23.969Z,8.58
2022-10-19T18:48:51.255Z,8.61
2022-10-19T18:51:20.718Z,8.57
2022-10-19T18:53:47.513Z,8.52
2022-10-19T18:56:17.023Z,8.53
2022-10-19T18:58:44.016Z,8.48
2022-10-19T19:01:13.925Z,8.45
2022-10-19T19:03:43.026Z,8.42
2022-10-19T19:06:12.622Z,8.36
2022-10-19T19:08:39.707Z,8.21
2022-10-19T19:11:34.353Z,8.13
2022-10-19T19:14:22.174Z,8.02
2022-10-19T19:16:49.209Z,7.89
2022-10-19T19:19:17.816Z,7.85
2022-10-19T19:21:45.694Z,7.71
2022-10-19T19:24:14.920Z,7.64
2022-10-19T19:26:44.083Z,7.52
2022-10-19T19:29:10.969Z,7.46
2022-10-19T19:31:39.349Z,7.40
2022-10-19T19:34:06.459Z,7.35
2022-10-19T19:36:33.516Z,7.29
2022-10-19T19:39:00.750Z,7.22
2022-10-19T19:41:28.957Z,7.21
2022-10-19T19:43:58.076Z,7.23
2022-10-19T19:46:25.227Z,7.24
2022-10-19T19:49:02.204Z,7.31
2022-10-19T19:51:31.084Z,7.37
2022-10-19T19:53:58.259Z,7.42
2022-10-19T19:56:25.317Z,7.46
2022-10-19T19:58:57.388Z,7.50
2022-10-19T20:01:24.803Z,7.52
2022-10-19T20:03:52.171Z,7.58
2022-10-19T20:06:23.532Z,7.56
2022-10-19T20:08:53.517Z,7.52
2022-10-19T20:11:22.017Z,7.49
2022-10-19T20:13:48.874Z,7.42
2022-10-19T20:16:18.580Z,7.32
2022-10-19T20:18:47.330Z,7.21
2022-10-19T20:21:15.362Z,7.06
2022-10-19T20:23:46.719Z,6.99
2022-10-19T20:26:23.165Z,6.91
2022-10-19T20:28:50.944Z,6.84
2022-10-19T20:31:19.097Z,6.71
2022-10-19T20:33:47.573Z,6.68
2022-10-19T20:36:25.719Z,6.59
2022-10-19T20:38:55.719Z,6.53
2022-10-19T20:41:25.539Z,6.49
2022-10-19T20:43:53.820Z,6.43
2022-10-19T20:46:27.004Z,6.34
2022-10-19T20:48:55.589Z,6.28
2022-10-19T20:51:30.985Z,6.15
2022-10-19T20:54:00.345Z,6.09
2022-10-19T20:56:30.784Z,6.04
2022-10-19T21:01:36.821Z,5.90
2022-10-19T21:04:05.989Z,5.86
2022-10-19T21:06:35.222Z,5.81
2022-10-19T21:09:02.068Z,5.78
2022-10-19T21:11:32.342Z,5.74
2022-10-19T21:14:05.196Z,5.72
2022-10-19T21:16:35.525Z,5.73
2022-10-19T21:19:04.577Z,5.72
2022-10-19T21:21:35.678Z,5.74
2022-10-19T21:24:04.908Z,5.75
2022-10-19T21:26:33.916Z,5.83
2022-10-19T21:29:01.731Z,5.90
2022-10-19T21:31:29.004Z,5.94
2022-10-19T21:33:55.771Z,5.98
2022-10-19T21:36:25.316Z,5.98
2022-10-19T21:38:52.080Z,5.95
2022-10-19T21:41:25.331Z,5.93
2022-10-19T21:43:54.418Z,5.96
2022-10-19T21:46:22.710Z,5.95
2022-10-19T21:48:50.492Z,5.89
2022-10-19T21:51:17.379Z,5.86
2022-10-19T21:53:44.508Z,5.80
2022-10-19T21:56:11.498Z,5.68
2022-10-19T21:58:38.343Z,5.59
2022-10-19T22:01:08.670Z,5.52
2022-10-19T22:03:35.410Z,5.45
2022-10-19T22:06:02.463Z,5.34
2022-10-19T22:08:29.355Z,5.27
2022-10-19T22:10:56.570Z,5.20
2022-10-19T22:13:23.299Z,5.13
2022-10-19T22:15:50.273Z,5.04
2022-10-19T22:18:17.029Z,4.98
2022-10-19T22:20:44.012Z,4.96
2022-10-19T22:23:10.761Z,4.90
2022-10-19T22:25:37.877Z,4.87
2022-10-19T22:28:04.741Z,4.79
2022-10-19T22:30:31.766Z,4.74
2022-10-19T22:32:58.581Z,4.67
2022-10-19T22:35:25.659Z,4.66
2022-10-19T22:37:52.528Z,4.66
2022-10-19T22:40:19.633Z,4.57
2022-10-19T22:43:42.781Z,4.55
2022-10-19T22:47:06.260Z,4.52
2022-10-19T22:50:29.223Z,4.50
2022-10-19T22:52:59.354Z,4.42
2022-10-19T22:55:26.226Z,4.37
2022-10-19T22:57:53.305Z,4.34
2022-10-19T23:00:20.271Z,4.32
2022-10-19T23:02:47.336Z,4.29
2022-10-19T23:05:14.225Z,4.27
2022-10-19T23:07:41.301Z,4.24
2022-10-19T23:10:08.502Z,4.13
2022-10-19T23:12:35.541Z,4.15
2022-10-19T23:15:02.379Z,4.14
2022-10-19T23:17:29.518Z,4.10
2022-10-19T23:19:56.462Z,4.06
2022-10-19T23:34:17.904Z,3.81
2022-10-19T23:36:44.849Z,3.78
2022-10-19T23:39:11.915Z,3.79
2022-10-19T23:41:38.730Z,3.75
2022-10-19T23:44:06.094Z,3.72
2022-10-19T23:46:32.842Z,3.71
2022-10-19T23:48:59.806Z,3.73
2022-10-19T23:51:26.574Z,3.70
2022-10-19T23:53:53.832Z,3.64
2022-10-19T23:56:26.260Z,3.61
2022-10-19T23:58:54.272Z,3.57
